Time;durP1;ratioP1;P1;durP2;ratioP2;P2;SDS_P1;SDS_P2;PMS_P1;PMS_P2;Temp;Humidity;BMP_temperature;BMP_pressure;BME280_temperature;BME280_humidity;BME280_pressure;Samples;Min_cycle;Max_cycle;Signal;HPM_P1;HPM_P2
2022/12/11 00:00:38;;;;;;;51.57;32.97;;;2.70;99.90;;;;;;5041788;28;37706;-79
2022/12/11 00:03:07;;;;;;;55.93;33.90;;;2.70;99.90;;;;;;5031076;28;37769;-78
2022/12/11 00:05:33;;;;;;;49.60;33.27;;;2.60;99.90;;;;;;5043877;28;37994;-77
2022/12/11 00:07:59;;;;;;;52.57;35.63;;;2.60;99.90;;;;;;5043815;28;38204;-79
2022/12/11 00:10:26;;;;;;;49.83;33.03;;;2.60;99.90;;;;;;5059972;28;37813;-78
2022/12/11 00:12:52;;;;;;;49.37;31.83;;;2.60;99.90;;;;;;5039887;28;39176;-78
2022/12/11 00:15:18;;;;;;;50.40;32.57;;;2.60;99.90;;;;;;5058468;28;38554;-76
2022/12/11 00:17:44;;;;;;;50.83;32.73;;;2.60;99.90;;;;;;5036878;28;37283;-77
2022/12/11 00:20:10;;;;;;;46.57;30.73;;;2.50;99.90;;;;;;5055485;28;37011;-77
2022/12/11 00:22:36;;;;;;;51.43;33.33;;;2.50;99.90;;;;;;5036811;28;37570;-79
2022/12/11 00:25:03;;;;;;;54.43;33.13;;;2.50;99.90;;;;;;5041218;28;39036;-78
2022/12/11 00:27:29;;;;;;;55.70;33.40;;;2.50;99.90;;;;;;5052244;28;46571;-79
2022/12/11 00:29:55;;;;;;;52.13;31.47;;;2.50;99.90;;;;;;5038993;28;37920;-79
2022/12/11 00:32:21;;;;;;;54.27;31.77;;;2.50;99.90;;;;;;5050341;28;37792;-78
2022/12/11 00:34:47;;;;;;;51.43;32.13;;;2.40;99.90;;;;;;5035099;28;37196;-78
2022/12/11 00:37:14;;;;;;;48.17;30.77;;;2.50;99.90;;;;;;5040837;28;38743;-78
2022/12/11 00:39:40;;;;;;;49.50;31.73;;;2.50;99.90;;;;;;5055731;28;36114;-78
2022/12/11 00:42:12;;;;;;;47.53;28.87;;;2.50;99.90;;;;;;5054554;28;37859;-78
2022/12/11 00:44:39;;;;;;;46.88;30.35;;;2.40;99.90;;;;;;5045411;28;39294;-78
2022/12/11 00:47:05;;;;;;;50.73;31.00;;;2.50;99.90;;;;;;5042332;28;38477;-78
2022/12/11 00:49:31;;;;;;;46.97;29.37;;;2.60;99.90;;;;;;5041997;28;37976;-78
2022/12/11 00:51:59;;;;;;;46.00;29.33;;;2.50;99.90;;;;;;5045832;28;38918;-79
2022/12/11 00:54:25;;;;;;;47.07;28.50;;;2.50;99.90;;;;;;5044509;28;40068;-78
2022/12/11 00:56:51;;;;;;;43.73;28.43;;;2.40;99.90;;;;;;5041601;28;38409;-76
2022/12/11 00:59:17;;;;;;;46.43;28.37;;;2.40;99.90;;;;;;5044308;28;36355;-78
2022/12/11 01:01:43;;;;;;;46.33;27.27;;;2.40;99.90;;;;;;5044244;28;39884;-78
2022/12/11 01:04:09;;;;;;;41.77;25.83;;;2.40;99.90;;;;;;5052909;28;38023;-80
2022/12/11 01:06:35;;;;;;;46.27;27.17;;;2.40;99.90;;;;;;5042989;28;38045;-79
2022/12/11 01:11:47;;;;;;;49.00;28.37;;;2.40;99.90;;;;;;5045929;28;49261;-77
2022/12/11 01:14:13;;;;;;;45.13;27.97;;;2.30;99.90;;;;;;5053283;28;38593;-79
2022/12/11 01:16:39;;;;;;;45.03;29.67;;;2.30;99.90;;;;;;5050171;28;37109;-78
2022/12/11 01:19:05;;;;;;;49.63;28.30;;;2.30;99.90;;;;;;5030056;28;37654;-79
2022/12/11 01:21:32;;;;;;;48.20;28.17;;;2.30;99.90;;;;;;5028708;28;39794;-78
2022/12/11 01:23:58;;;;;;;43.03;26.80;;;2.20;99.90;;;;;;5055407;28;37742;-78
2022/12/11 01:26:24;;;;;;;42.30;26.77;;;2.30;99.90;;;;;;5039293;28;39147;-77
2022/12/11 01:28:50;;;;;;;52.60;27.60;;;2.30;99.90;;;;;;5042116;28;37226;-78
2022/12/11 01:31:18;;;;;;;46.07;26.70;;;2.30;99.90;;;;;;5065465;28;37557;-78
2022/12/11 01:33:45;;;;;;;50.13;27.87;;;2.30;99.90;;;;;;5041196;28;38247;-81
2022/12/11 01:36:15;;;;;;;48.73;28.73;;;2.40;99.90;;;;;;5052653;28;38350;-79
2022/12/11 01:38:42;;;;;;;47.90;29.10;;;2.30;99.90;;;;;;5034630;28;37653;-79
2022/12/11 01:41:09;;;;;;;50.47;28.70;;;2.30;99.90;;;;;;5053310;28;37453;-79
2022/12/11 01:43:59;;;;;;;49.73;28.67;;;2.30;99.90;;;;;;5038601;28;38771;-78
2022/12/11 01:46:25;;;;;;;51.03;28.93;;;2.30;99.90;;;;;;5046236;28;36942;-79
2022/12/11 01:48:52;;;;;;;47.47;28.40;;;2.30;99.90;;;;;;5037712;28;35907;-79
2022/12/11 01:51:19;;;;;;;46.50;27.87;;;2.30;99.90;;;;;;5042468;28;38781;-79
2022/12/11 01:53:49;;;;;;;47.70;28.43;;;2.30;99.90;;;;;;5042657;28;39139;-78
2022/12/11 01:56:16;;;;;;;46.53;27.40;;;2.30;99.90;;;;;;5057734;28;33980;-78
2022/12/11 01:58:48;;;;;;;44.30;27.00;;;2.40;99.90;;;;;;5057137;28;37363;-80
2022/12/11 02:03:51;;;;;;;44.50;27.27;;;2.30;99.90;;;;;;4994572;23;20578;-75
2022/12/11 02:06:29;;;;;;;42.77;26.80;;;2.40;99.90;;;;;;4969464;28;37018;-74
2022/12/11 02:08:55;;;;;;;42.60;25.13;;;2.40;99.90;;;;;;4983169;28;36387;-74
2022/12/11 02:11:28;;;;;;;42.07;26.17;;;2.40;99.90;;;;;;4985662;28;39310;-74
2022/12/11 02:14:28;;;;;;;39.90;24.57;;;2.40;99.90;;;;;;4977333;28;38620;-74
2022/12/11 02:17:11;;;;;;;42.20;24.87;;;2.40;99.90;;;;;;4982457;28;47252;-74
2022/12/11 02:19:54;;;;;;;35.87;23.27;;;2.40;99.90;;;;;;4962746;28;48425;-74
2022/12/11 02:22:38;;;;;;;39.08;23.90;;;2.50;99.90;;;;;;4963954;28;38020;-74
2022/12/11 02:25:25;;;;;;;38.40;23.40;;;2.40;99.90;;;;;;4986448;28;36235;-76
2022/12/11 02:28:01;;;;;;;38.73;24.03;;;2.50;99.90;;;;;;4967320;28;37176;-73
2022/12/11 02:30:28;;;;;;;41.53;24.40;;;2.50;99.90;;;;;;4983249;28;36843;-74
2022/12/11 02:32:57;;;;;;;37.63;23.57;;;2.50;99.90;;;;;;4970576;28;39773;-74
2022/12/11 02:35:31;;;;;;;42.17;24.83;;;2.50;99.90;;;;;;4983517;28;37349;-74
2022/12/11 02:38:02;;;;;;;44.93;25.87;;;2.50;99.90;;;;;;4966858;28;38320;-74
2022/12/11 02:40:31;;;;;;;45.27;26.10;;;2.50;99.90;;;;;;4969235;28;48644;-74
2022/12/11 02:43:01;;;;;;;48.43;27.77;;;2.50;99.90;;;;;;4970915;28;39278;-73
2022/12/11 02:45:28;;;;;;;45.17;25.97;;;2.50;99.90;;;;;;4970347;28;46467;-74
2022/12/11 02:47:58;;;;;;;45.07;27.10;;;2.50;99.90;;;;;;4971409;28;38540;-74
2022/12/11 02:50:28;;;;;;;43.40;26.20;;;2.50;99.90;;;;;;4965940;28;37246;-74
2022/12/11 02:52:56;;;;;;;47.33;27.00;;;2.50;99.90;;;;;;4970540;28;38870;-75
2022/12/11 02:55:25;;;;;;;47.90;26.97;;;2.50;99.90;;;;;;4983180;28;37376;-74
2022/12/11 02:58:11;;;;;;;48.20;27.07;;;2.50;99.90;;;;;;4971240;28;38556;-74
2022/12/11 03:00:38;;;;;;;44.50;26.57;;;2.40;99.90;;;;;;4975347;28;48933;-74
2022/12/11 03:03:04;;;;;;;43.07;27.00;;;2.50;99.90;;;;;;4972750;28;39530;-75
2022/12/11 03:05:31;;;;;;;43.87;25.33;;;2.50;99.90;;;;;;4988478;28;37394;-74
2022/12/11 03:07:57;;;;;;;48.27;27.03;;;2.50;99.90;;;;;;4989548;28;37920;-74
2022/12/11 03:10:24;;;;;;;42.83;26.27;;;2.40;99.90;;;;;;4970802;28;38361;-74
2022/12/11 03:12:54;;;;;;;41.77;25.47;;;2.50;99.90;;;;;;4965334;28;36881;-73
2022/12/11 03:15:29;;;;;;;42.83;25.07;;;2.50;99.90;;;;;;4972099;28;38467;-75
2022/12/11 03:18:08;;;;;;;42.30;25.47;;;2.50;99.90;;;;;;4985833;28;37253;-75
2022/12/11 03:20:46;;;;;;;45.60;25.67;;;2.50;99.90;;;;;;4970847;28;49134;-73
2022/12/11 03:23:29;;;;;;;44.23;25.53;;;2.50;99.90;;;;;;4988081;28;37627;-75
2022/12/11 03:26:02;;;;;;;42.83;24.13;;;2.50;99.90;;;;;;4988669;28;36361;-75
2022/12/11 03:28:37;;;;;;;40.50;25.40;;;2.50;99.90;;;;;;4972345;28;39031;-75
2022/12/11 03:31:07;;;;;;;42.17;25.83;;;2.50;99.90;;;;;;4969988;28;38345;-76
2022/12/11 03:33:46;;;;;;;41.67;25.43;;;2.50;99.90;;;;;;4972200;28;48711;-75
2022/12/11 03:36:26;;;;;;;44.13;26.00;;;2.50;99.90;;;;;;4967879;28;37265;-75
2022/12/11 03:38:56;;;;;;;39.70;23.27;;;2.50;99.90;;;;;;4972861;28;38461;-75
2022/12/11 03:41:25;;;;;;;40.07;24.30;;;2.50;99.90;;;;;;4968830;28;37619;-75
2022/12/11 03:43:55;;;;;;;38.83;23.13;;;2.50;99.90;;;;;;4983713;28;38144;-75
2022/12/11 03:46:26;;;;;;;35.60;22.07;;;2.50;99.90;;;;;;4978900;28;38609;-75
2022/12/11 03:48:54;;;;;;;37.40;21.90;;;2.50;99.90;;;;;;4967772;28;37239;-75
2022/12/11 03:51:23;;;;;;;35.03;22.03;;;2.40;99.90;;;;;;4967507;28;38630;-75
2022/12/11 03:53:49;;;;;;;33.20;20.60;;;2.40;99.90;;;;;;4974195;28;38509;-76
2022/12/11 03:56:18;;;;;;;35.70;21.53;;;2.40;99.90;;;;;;4987689;28;37165;-76
2022/12/11 03:58:45;;;;;;;33.67;19.70;;;2.50;99.90;;;;;;4977757;28;39786;-74
2022/12/11 04:01:11;;;;;;;30.43;19.33;;;2.40;99.90;;;;;;4971906;28;38569;-75
2022/12/11 04:03:37;;;;;;;29.83;18.23;;;2.50;99.90;;;;;;4974441;28;38743;-74
2022/12/11 04:06:03;;;;;;;30.23;17.47;;;2.50;99.90;;;;;;4973266;28;38358;-74
2022/12/11 04:08:29;;;;;;;25.47;16.37;;;2.40;99.90;;;;;;4988893;28;47022;-73
2022/12/11 04:13:41;;;;;;;25.33;15.57;;;2.50;99.90;;;;;;4974658;28;49191;-76
2022/12/11 04:16:07;;;;;;;25.70;16.47;;;2.40;99.90;;;;;;4988157;28;37451;-75
2022/12/11 04:24:15;;;;;;;26.10;16.10;;;2.50;99.90;;;;;;4972778;28;39021;-75
2022/12/11 04:26:44;;;;;;;26.07;15.90;;;2.50;99.90;;;;;;4976864;28;39354;-75
2022/12/11 04:29:10;;;;;;;22.63;14.17;;;2.50;99.90;;;;;;4976730;28;38282;-75
2022/12/11 04:31:36;;;;;;;24.33;15.57;;;2.50;99.90;;;;;;4974526;28;36269;-75
2022/12/11 04:34:02;;;;;;;22.33;14.93;;;2.50;99.90;;;;;;4972051;28;38823;-75
2022/12/11 04:36:28;;;;;;;23.90;14.83;;;2.50;99.90;;;;;;4988028;28;37402;-76
2022/12/11 04:38:55;;;;;;;24.07;16.00;;;2.50;99.90;;;;;;4971299;28;39267;-75
2022/12/11 04:41:21;;;;;;;23.53;14.77;;;2.50;99.90;;;;;;4973845;28;37789;-75
2022/12/11 04:43:47;;;;;;;27.27;16.07;;;2.50;99.90;;;;;;4973177;28;38795;-76
2022/12/11 04:46:19;;;;;;;25.10;15.97;;;2.60;99.90;;;;;;4987823;28;39049;-76
2022/12/11 04:48:46;;;;;;;25.33;16.67;;;2.60;99.90;;;;;;4976538;28;39552;-76
2022/12/11 04:51:12;;;;;;;25.00;15.70;;;2.60;99.90;;;;;;4966541;28;38473;-75
2022/12/11 04:53:38;;;;;;;28.23;17.03;;;2.60;99.90;;;;;;4992077;28;37495;-76
2022/12/11 04:56:05;;;;;;;29.77;17.40;;;2.60;99.90;;;;;;4991426;28;37468;-75
2022/12/11 04:58:32;;;;;;;31.17;18.77;;;2.60;99.90;;;;;;4972379;28;48584;-75
2022/12/11 05:00:58;;;;;;;34.27;19.07;;;2.60;99.90;;;;;;4973443;28;39097;-75
2022/12/11 05:03:24;;;;;;;35.20;20.30;;;2.60;99.90;;;;;;4985085;28;37248;-75
2022/12/11 05:05:52;;;;;;;32.47;18.13;;;2.60;99.90;;;;;;4992789;28;37382;-75
2022/12/11 05:08:19;;;;;;;33.20;19.27;;;2.60;99.90;;;;;;4970163;28;38707;-75
2022/12/11 05:10:55;;;;;;;32.67;19.37;;;2.60;99.90;;;;;;4975137;28;36123;-75
2022/12/11 05:13:21;;;;;;;38.53;20.40;;;2.60;99.90;;;;;;4986422;28;39120;-75
2022/12/11 05:15:48;;;;;;;36.90;21.47;;;2.60;99.90;;;;;;4971363;28;38079;-75
2022/12/11 05:18:14;;;;;;;39.27;22.13;;;2.60;99.90;;;;;;4982965;28;38805;-75
2022/12/11 05:20:40;;;;;;;38.10;21.33;;;2.50;99.90;;;;;;4985260;28;36409;-74
2022/12/11 05:23:06;;;;;;;40.83;23.50;;;2.50;99.90;;;;;;4968100;28;38682;-75
2022/12/11 05:25:32;;;;;;;39.40;21.77;;;2.50;99.90;;;;;;4970253;28;39123;-75
2022/12/11 05:27:58;;;;;;;36.37;21.93;;;2.50;99.90;;;;;;4969726;28;37798;-73
2022/12/11 05:30:24;;;;;;;39.27;21.53;;;2.50;99.90;;;;;;4970021;28;36173;-74
2022/12/11 05:32:50;;;;;;;37.20;22.63;;;2.50;99.90;;;;;;4984067;28;38782;-74
2022/12/11 05:35:16;;;;;;;43.17;23.93;;;2.50;99.90;;;;;;4965010;28;37093;-73
2022/12/11 05:37:42;;;;;;;40.60;23.57;;;2.50;99.90;;;;;;4964968;28;37085;-74
2022/12/11 05:40:11;;;;;;;41.47;23.70;;;2.50;99.90;;;;;;4967642;28;38027;-74
2022/12/11 05:42:37;;;;;;;40.20;23.47;;;2.50;99.90;;;;;;4965442;28;37789;-74
2022/12/11 05:45:05;;;;;;;41.43;23.27;;;2.50;99.90;;;;;;4985037;28;38366;-75
2022/12/11 05:47:31;;;;;;;42.80;24.30;;;2.50;99.90;;;;;;4985262;28;37430;-75
2022/12/11 05:49:57;;;;;;;47.53;24.50;;;2.40;99.90;;;;;;4973613;28;36412;-74
2022/12/11 05:52:23;;;;;;;43.93;24.73;;;2.40;99.90;;;;;;4967386;28;38588;-73
2022/12/11 05:54:49;;;;;;;45.97;23.90;;;2.50;99.90;;;;;;4971117;28;37992;-74
2022/12/11 05:57:16;;;;;;;44.03;23.53;;;2.40;99.90;;;;;;4968033;28;37850;-75
2022/12/11 05:59:42;;;;;;;45.37;24.93;;;2.40;99.90;;;;;;4967492;28;38188;-75
2022/12/11 06:02:08;;;;;;;43.57;22.37;;;2.40;99.90;;;;;;4975245;28;37789;-74
2022/12/11 06:04:34;;;;;;;39.23;23.30;;;2.40;99.90;;;;;;4966907;28;38718;-74
2022/12/11 06:07:00;;;;;;;44.00;22.80;;;2.40;99.90;;;;;;4964656;28;36286;-73
2022/12/11 06:09:26;;;;;;;41.43;23.03;;;2.40;99.90;;;;;;4967563;28;37421;-74
2022/12/11 06:11:52;;;;;;;39.00;22.10;;;2.40;99.90;;;;;;4965483;28;39221;-74
2022/12/11 06:14:18;;;;;;;40.87;22.00;;;2.50;99.90;;;;;;4965697;28;39489;-74
2022/12/11 06:16:44;;;;;;;41.67;22.23;;;2.50;99.90;;;;;;4967291;28;37192;-75
2022/12/11 06:19:17;;;;;;;36.87;20.80;;;2.50;99.90;;;;;;4978721;28;36159;-74
2022/12/11 06:21:44;;;;;;;39.10;21.98;;;2.50;99.90;;;;;;4963839;28;38761;-73
2022/12/11 06:24:10;;;;;;;40.63;21.63;;;2.50;99.90;;;;;;4975246;28;37980;-73
2022/12/11 06:26:37;;;;;;;36.13;20.00;;;2.50;99.90;;;;;;4981956;28;38071;-73
2022/12/11 06:29:03;;;;;;;37.47;20.77;;;2.50;99.90;;;;;;4969034;28;37681;-73
2022/12/11 06:31:29;;;;;;;32.33;19.47;;;2.40;99.90;;;;;;4965608;28;47733;-73
2022/12/11 06:33:55;;;;;;;37.27;20.43;;;2.50;99.90;;;;;;4984388;28;37546;-73
2022/12/11 06:36:24;;;;;;;34.20;20.57;;;2.50;99.90;;;;;;4972324;28;40102;-74
2022/12/11 06:38:51;;;;;;;32.80;19.13;;;2.50;99.90;;;;;;4972309;28;37817;-72
2022/12/11 06:41:17;;;;;;;42.33;21.47;;;2.50;99.90;;;;;;4969833;28;37458;-72
2022/12/11 06:43:43;;;;;;;35.27;19.17;;;2.50;99.90;;;;;;4966830;28;37195;-74
2022/12/11 06:46:12;;;;;;;35.67;19.60;;;2.50;99.90;;;;;;4965434;28;38341;-74
2022/12/11 06:48:41;;;;;;;33.87;18.77;;;2.50;99.90;;;;;;4970404;28;37822;-75
2022/12/11 06:51:18;;;;;;;35.10;20.00;;;2.50;99.90;;;;;;4987178;28;37992;-75
2022/12/11 06:53:49;;;;;;;31.30;18.20;;;2.60;99.90;;;;;;4971312;28;38437;-75
2022/12/11 06:56:15;;;;;;;32.87;19.17;;;2.60;99.90;;;;;;4979990;28;37041;-74
2022/12/11 06:58:43;;;;;;;30.60;18.80;;;2.60;99.90;;;;;;4969609;28;38134;-75
2022/12/11 07:01:15;;;;;;;29.77;18.07;;;2.60;99.90;;;;;;4981795;28;38521;-74
2022/12/11 07:03:41;;;;;;;29.35;17.42;;;2.60;99.90;;;;;;4967982;28;37180;-73
2022/12/11 07:06:07;;;;;;;26.37;16.87;;;2.60;99.90;;;;;;4971606;28;38557;-73
2022/12/11 07:08:33;;;;;;;27.40;16.60;;;2.60;99.90;;;;;;4973425;28;37647;-73
2022/12/11 07:11:08;;;;;;;26.10;16.73;;;2.60;99.90;;;;;;4976667;28;38616;-75
2022/12/11 07:13:34;;;;;;;27.50;16.97;;;2.60;99.90;;;;;;4972383;28;48439;-74
2022/12/11 07:16:03;;;;;;;24.60;15.57;;;2.60;99.90;;;;;;4979477;28;37240;-74
2022/12/11 07:18:31;;;;;;;28.40;16.33;;;2.60;99.90;;;;;;4979753;28;35845;-75
2022/12/11 07:20:59;;;;;;;25.47;16.57;;;2.70;99.90;;;;;;4984485;28;37903;-74
2022/12/11 07:23:27;;;;;;;26.53;15.93;;;2.60;99.90;;;;;;4977535;28;38283;-74
2022/12/11 07:25:54;;;;;;;26.50;17.40;;;2.70;99.90;;;;;;4983360;28;39055;-74
2022/12/11 07:28:20;;;;;;;26.97;16.47;;;2.70;99.90;;;;;;4982264;28;37988;-74
2022/12/11 07:30:46;;;;;;;27.23;16.50;;;2.70;99.90;;;;;;4968722;28;38464;-74
2022/12/11 07:33:12;;;;;;;26.07;16.63;;;2.70;99.90;;;;;;4970582;28;39021;-74
2022/12/11 07:35:39;;;;;;;29.63;18.73;;;2.60;99.90;;;;;;4987194;28;38599;-73
2022/12/11 07:38:05;;;;;;;27.60;16.37;;;2.70;99.90;;;;;;4976453;28;36072;-75
2022/12/11 07:40:32;;;;;;;29.97;16.87;;;2.70;99.90;;;;;;4976855;28;38247;-74
2022/12/11 07:42:58;;;;;;;30.57;17.67;;;2.70;99.90;;;;;;4995997;28;38713;-74
2022/12/11 07:45:25;;;;;;;29.17;16.67;;;2.70;99.90;;;;;;4973633;28;38237;-73
2022/12/11 07:47:51;;;;;;;31.23;17.73;;;2.70;99.90;;;;;;4975874;28;37333;-75
2022/12/11 07:50:18;;;;;;;34.43;19.97;;;2.70;99.90;;;;;;4974680;28;39328;-73
2022/12/11 07:52:44;;;;;;;32.50;19.63;;;2.70;99.90;;;;;;4974802;28;38530;-73
2022/12/11 07:55:10;;;;;;;35.77;21.57;;;2.70;99.90;;;;;;4989885;28;37096;-75
2022/12/11 07:57:36;;;;;;;32.90;19.43;;;2.60;99.90;;;;;;4973723;28;37612;-74
2022/12/11 08:00:04;;;;;;;38.63;21.20;;;2.60;99.90;;;;;;4970434;28;40014;-73
2022/12/11 08:02:30;;;;;;;37.70;21.73;;;2.60;99.90;;;;;;4994289;28;37949;-74
2022/12/11 08:04:56;;;;;;;35.33;20.63;;;2.60;99.90;;;;;;4983140;28;39693;-74
2022/12/11 08:07:22;;;;;;;40.30;21.80;;;2.70;99.90;;;;;;4981931;28;37832;-75
2022/12/11 08:09:48;;;;;;;42.97;23.37;;;2.70;99.90;;;;;;4982745;28;38719;-74
2022/12/11 08:12:15;;;;;;;39.40;23.47;;;2.60;99.90;;;;;;4980835;28;39048;-74
2022/12/11 08:14:41;;;;;;;35.37;21.23;;;2.60;99.90;;;;;;4981545;28;39299;-76
2022/12/11 08:17:07;;;;;;;43.03;24.00;;;2.70;99.90;;;;;;4983016;28;38570;-75
2022/12/11 08:19:33;;;;;;;40.37;23.70;;;2.80;99.90;;;;;;4983557;28;39896;-75
2022/12/11 08:21:59;;;;;;;45.50;24.80;;;2.80;99.90;;;;;;4977828;28;38857;-76
2022/12/11 08:24:26;;;;;;;46.47;24.60;;;2.70;99.90;;;;;;4995350;28;37011;-74
2022/12/11 08:26:52;;;;;;;44.33;25.40;;;2.70;99.90;;;;;;4990157;28;37418;-74
2022/12/11 08:29:18;;;;;;;43.07;24.40;;;2.70;99.90;;;;;;4988269;28;38834;-75
2022/12/11 08:31:45;;;;;;;45.90;24.57;;;2.60;99.90;;;;;;4970868;28;39064;-75
2022/12/11 08:34:12;;;;;;;43.60;25.47;;;2.70;99.90;;;;;;4975243;28;37051;-75
2022/12/11 08:36:39;;;;;;;44.30;24.80;;;2.60;99.90;;;;;;4970517;28;37074;-75
2022/12/11 08:39:05;;;;;;;42.87;23.67;;;2.70;99.90;;;;;;4984381;28;37695;-75
2022/12/11 08:41:31;;;;;;;47.60;26.83;;;2.70;99.90;;;;;;4982025;28;37713;-74
2022/12/11 08:43:59;;;;;;;47.90;26.70;;;2.70;99.90;;;;;;4986048;28;38840;-76
2022/12/11 08:46:28;;;;;;;44.83;24.23;;;2.70;99.90;;;;;;4987294;28;37029;-75
2022/12/11 08:48:54;;;;;;;46.23;25.80;;;2.70;99.90;;;;;;4980464;28;40296;-75
2022/12/11 08:51:23;;;;;;;47.03;25.80;;;2.70;99.90;;;;;;4979012;28;37307;-75
2022/12/11 08:53:50;;;;;;;48.93;26.73;;;2.60;99.90;;;;;;4974362;28;35913;-74
2022/12/11 08:56:18;;;;;;;48.47;25.60;;;2.70;99.90;;;;;;4966588;28;38238;-75
2022/12/11 08:58:46;;;;;;;43.90;25.93;;;2.70;99.90;;;;;;4962662;28;38956;-73
2022/12/11 09:01:38;;;;;;;45.80;24.67;;;2.70;99.90;;;;;;4978895;28;37410;-74
2022/12/11 09:04:04;;;;;;;46.90;25.20;;;2.70;99.90;;;;;;4978914;28;37106;-74
2022/12/11 09:06:32;;;;;;;50.87;27.53;;;2.70;99.90;;;;;;4963134;28;38405;-74
2022/12/11 09:09:00;;;;;;;46.03;25.90;;;2.70;99.90;;;;;;4969525;28;40098;-74
2022/12/11 09:11:31;;;;;;;49.90;26.57;;;2.80;99.90;;;;;;4963567;28;40083;-74
2022/12/11 09:13:58;;;;;;;50.83;29.17;;;2.80;99.90;;;;;;4967674;28;37626;-74
2022/12/11 09:16:25;;;;;;;47.57;26.70;;;2.80;99.90;;;;;;4979786;28;36359;-74
2022/12/11 09:18:54;;;;;;;50.10;26.77;;;2.80;99.90;;;;;;4969505;28;39544;-74
2022/12/11 09:21:23;;;;;;;47.63;26.97;;;2.80;99.90;;;;;;4966406;28;37585;-75
2022/12/11 09:23:52;;;;;;;44.83;26.03;;;2.80;99.90;;;;;;4966553;28;39242;-75
2022/12/11 09:26:18;;;;;;;51.67;28.07;;;2.80;99.90;;;;;;4983900;28;36138;-74
2022/12/11 09:28:45;;;;;;;48.20;26.27;;;2.70;99.90;;;;;;4972954;28;38110;-74
2022/12/11 09:31:14;;;;;;;48.27;26.50;;;2.70;99.90;;;;;;4980452;28;37446;-75
2022/12/11 09:33:41;;;;;;;49.57;27.47;;;2.80;99.90;;;;;;4981299;28;37209;-75
2022/12/11 09:36:08;;;;;;;46.20;26.50;;;2.80;99.90;;;;;;4966978;28;37413;-75
2022/12/11 09:38:35;;;;;;;45.67;26.03;;;2.80;99.90;;;;;;4982435;28;37663;-75
2022/12/11 09:41:15;;;;;;;49.17;26.40;;;2.70;99.90;;;;;;4982415;28;38472;-75
2022/12/11 09:44:04;;;;;;;50.90;26.63;;;2.80;99.90;;;;;;4973965;28;50219;-75
2022/12/11 09:46:32;;;;;;;45.23;26.77;;;2.80;99.90;;;;;;4977578;28;47077;-74
2022/12/11 09:49:00;;;;;;;50.17;28.63;;;2.80;99.90;;;;;;4977417;28;38133;-74
2022/12/11 09:51:38;;;;;;;50.60;28.03;;;2.80;99.90;;;;;;4962029;28;39606;-73
2022/12/11 09:54:05;;;;;;;53.23;27.90;;;2.80;99.90;;;;;;4977025;28;38710;-73
2022/12/11 09:56:49;;;;;;;49.43;27.93;;;2.80;99.90;;;;;;4967693;28;37524;-73
2022/12/11 09:59:56;;;;;;;56.33;29.20;;;2.90;99.90;;;;;;4976718;28;37640;-73
2022/12/11 10:03:06;;;;;;;48.70;27.10;;;2.90;99.90;;;;;;4971889;28;37763;-76
2022/12/11 10:06:06;;;;;;;52.40;28.23;;;2.90;99.90;;;;;;4985170;28;47438;-75
2022/12/11 10:08:47;;;;;;;56.27;28.93;;;2.90;99.90;;;;;;4985996;28;48183;-73
2022/12/11 10:11:32;;;;;;;56.10;29.23;;;2.90;99.90;;;;;;4986176;28;38955;-74
2022/12/11 10:14:19;;;;;;;55.83;28.40;;;3.00;99.90;;;;;;4969939;28;38286;-74
2022/12/11 10:16:47;;;;;;;54.47;28.90;;;2.90;99.90;;;;;;4972140;28;49550;-72
2022/12/11 10:19:20;;;;;;;51.13;28.83;;;3.00;99.90;;;;;;4973255;28;37839;-74
2022/12/11 10:21:50;;;;;;;58.70;30.27;;;2.90;99.90;;;;;;4973105;28;39398;-75
2022/12/11 10:24:40;;;;;;;58.17;31.43;;;2.90;99.90;;;;;;4970697;28;38423;-73
2022/12/11 10:27:20;;;;;;;54.70;30.43;;;2.90;99.90;;;;;;4972518;28;38213;-73
2022/12/11 10:29:51;;;;;;;57.03;31.00;;;2.90;99.90;;;;;;4980109;28;37528;-74
2022/12/11 10:32:32;;;;;;;53.83;31.13;;;2.80;99.90;;;;;;4976293;28;37596;-76
2022/12/11 10:35:04;;;;;;;49.77;28.53;;;2.90;99.90;;;;;;4978850;28;37467;-74
2022/12/11 10:37:30;;;;;;;59.57;30.03;;;2.90;99.90;;;;;;4967072;28;47670;-74
2022/12/11 10:39:56;;;;;;;56.30;30.63;;;2.90;99.90;;;;;;4966823;28;37340;-73
2022/12/11 10:42:23;;;;;;;55.43;29.27;;;3.00;99.90;;;;;;4966658;28;38785;-75
2022/12/11 10:44:58;;;;;;;54.33;29.40;;;2.90;99.90;;;;;;4966936;28;38748;-74
2022/12/11 10:47:24;;;;;;;53.27;29.70;;;2.90;99.90;;;;;;4980862;28;36773;-74
2022/12/11 10:49:57;;;;;;;58.87;31.03;;;3.00;99.90;;;;;;4976456;28;36118;-74
2022/12/11 10:52:26;;;;;;;58.17;30.07;;;3.00;99.90;;;;;;4966562;28;38328;-74
2022/12/11 10:55:01;;;;;;;53.37;28.97;;;3.00;99.90;;;;;;4953524;28;39136;-74
2022/12/11 10:57:30;;;;;;;56.27;29.27;;;3.00;99.90;;;;;;4965894;28;36872;-74
2022/12/11 10:59:58;;;;;;;57.23;31.23;;;3.00;99.90;;;;;;4977957;28;36464;-74
2022/12/11 11:02:37;;;;;;;57.50;30.23;;;3.00;99.90;;;;;;4958673;28;39914;-73
2022/12/11 11:05:26;;;;;;;54.53;29.37;;;3.10;99.90;;;;;;4966653;28;38551;-77
2022/12/11 11:08:22;;;;;;;60.93;31.27;;;3.10;99.90;;;;;;4965234;28;47149;-76
2022/12/11 11:10:54;;;;;;;52.73;29.67;;;3.20;99.90;;;;;;4953364;28;47198;-75
2022/12/11 11:13:26;;;;;;;53.17;28.38;;;3.20;99.90;;;;;;4972501;28;37819;-74
2022/12/11 11:16:19;;;;;;;55.50;30.05;;;3.20;99.90;;;;;;4964386;28;38281;-76
2022/12/11 11:18:54;;;;;;;52.37;29.40;;;3.10;99.90;;;;;;4976644;28;47001;-76
2022/12/11 11:21:25;;;;;;;53.73;30.23;;;3.20;99.90;;;;;;4981710;28;36469;-74
2022/12/11 11:23:52;;;;;;;57.03;30.33;;;3.20;99.90;;;;;;4983231;28;39077;-74
2022/12/11 11:26:21;;;;;;;53.17;29.50;;;3.10;99.90;;;;;;4971650;28;38354;-75
2022/12/11 11:28:53;;;;;;;63.07;31.60;;;3.10;99.90;;;;;;4987333;28;36997;-74
2022/12/11 11:31:28;;;;;;;60.00;30.20;;;3.10;99.90;;;;;;4969581;28;37941;-74
2022/12/11 11:33:58;;;;;;;56.87;31.07;;;3.00;99.90;;;;;;4965993;28;39246;-74
2022/12/11 11:36:30;;;;;;;60.80;30.63;;;3.00;99.90;;;;;;4984658;28;38856;-74
2022/12/11 11:39:17;;;;;;;60.30;33.30;;;3.10;99.90;;;;;;4979881;28;38600;-73
2022/12/11 11:41:55;;;;;;;57.93;31.47;;;3.10;99.90;;;;;;4959491;28;47227;-74
2022/12/11 11:44:57;;;;;;;63.13;32.27;;;3.10;99.90;;;;;;4964451;28;39216;-74
2022/12/11 11:47:27;;;;;;;60.10;30.83;;;3.10;99.90;;;;;;4971202;28;38961;-73
2022/12/11 11:50:11;;;;;;;62.33;31.70;;;3.00;99.90;;;;;;4963615;28;39059;-76
2022/12/11 11:52:52;;;;;;;59.50;31.77;;;2.90;99.90;;;;;;4984382;28;47218;-75
2022/12/11 11:55:41;;;;;;;58.43;29.57;;;2.80;99.90;;;;;;4969923;28;39854;-74
2022/12/11 11:58:23;;;;;;;57.40;29.83;;;2.80;99.90;;;;;;4962566;28;37484;-74
2022/12/11 12:00:52;;;;;;;49.78;26.48;;;2.80;99.90;;;;;;4964113;28;38851;-75
2022/12/11 12:03:22;;;;;;;53.33;27.63;;;2.70;99.90;;;;;;4967488;28;36403;-75
2022/12/11 12:06:06;;;;;;;57.63;28.60;;;2.70;99.90;;;;;;4981200;28;37686;-75
2022/12/11 12:08:55;;;;;;;51.53;27.63;;;2.80;99.90;;;;;;4969663;28;20103;-76
2022/12/11 12:11:29;;;;;;;47.37;26.10;;;2.70;99.90;;;;;;4981100;28;37195;-75
2022/12/11 12:14:33;;;;;;;52.13;27.37;;;2.80;99.90;;;;;;4967643;28;37558;-75
2022/12/11 12:17:08;;;;;;;49.15;26.45;;;2.90;99.90;;;;;;4972941;28;48784;-75
2022/12/11 12:20:02;;;;;;;47.37;27.67;;;3.00;99.90;;;;;;4962457;28;48319;-76
2022/12/11 12:22:52;;;;;;;47.47;26.77;;;3.00;99.90;;;;;;4963726;28;37135;-77
2022/12/11 12:25:27;;;;;;;47.50;25.17;;;2.90;99.90;;;;;;4957291;28;38171;-76
2022/12/11 12:28:12;;;;;;;46.30;25.57;;;3.00;99.90;;;;;;4975980;28;37947;-76
2022/12/11 12:31:01;;;;;;;38.33;22.90;;;3.10;99.90;;;;;;4963572;28;48480;-77
2022/12/11 12:33:59;;;;;;;37.03;20.03;;;3.00;99.90;;;;;;4982702;28;38180;-76
2022/12/11 12:36:45;;;;;;;37.50;21.13;;;3.00;99.90;;;;;;4982742;28;36246;-76
2022/12/11 12:39:30;;;;;;;37.00;20.93;;;3.00;99.90;;;;;;4958492;28;41439;-76
2022/12/11 12:42:02;;;;;;;38.90;20.80;;;2.90;99.90;;;;;;4964232;28;38355;-76
2022/12/11 12:44:37;;;;;;;41.75;22.50;;;3.00;99.90;;;;;;4967559;28;47197;-76
2022/12/11 12:47:14;;;;;;;37.43;21.30;;;3.00;99.90;;;;;;4964879;28;37152;-77
2022/12/11 12:49:48;;;;;;;39.83;21.80;;;2.80;99.90;;;;;;4967943;28;39539;-76
2022/12/11 12:52:21;;;;;;;37.27;21.53;;;2.90;99.90;;;;;;4981288;28;37798;-76
2022/12/11 12:57:37;;;;;;;45.13;23.70;;;2.90;99.90;;;;;;4967673;28;49677;-77
2022/12/11 13:00:05;;;;;;;45.73;24.90;;;2.90;99.90;;;;;;4982100;28;39458;-77
2022/12/11 13:02:32;;;;;;;44.13;24.53;;;2.80;99.90;;;;;;4965088;28;39379;-76
2022/12/11 13:05:04;;;;;;;45.80;24.20;;;2.80;99.90;;;;;;4968549;28;38348;-77
2022/12/11 13:07:31;;;;;;;45.37;25.80;;;2.80;99.90;;;;;;4981734;28;47248;-76
2022/12/11 13:10:32;;;;;;;44.43;24.90;;;2.90;99.90;;;;;;4966189;28;37603;-76